CheckWX is a tool to help pilots better visualize weather data.  It is not intended as a substitute for an official pre-flight weather briefing.

03:18:49 UTC

KMCO METAR
Orlando International Airport
Orlando, Florida, USA
Current

26 mins ago

KMCO 270253Z 14008KT 10SM CLR 24/21 A3012 RMK AO2 SLP198 T02440211 53014
Observed
May-27 @ 02:53 UTC
Wind
  • 140° at 8 KTS
Visibility
10 SM
Flight Rules
VFR
Cloud Levels
  • Clear skies
Temperature
24°C / 75°F
Dewpoint
21°C / 70°F
Humidity
83%
Altimeter
30.12" Hg
Pressure
1020.02 hPa
Previous

1 hour ago

KMCO 270153Z 13008KT 10SM CLR 26/21 A3011 RMK AO2 SLP193 T02560206
Observed
May-27 @ 01:53 UTC
Wind
  • 130° at 8 KTS
Visibility
10 SM
Flight Rules
VFR
Cloud Levels
  • Clear skies
Temperature
26°C / 79°F
Dewpoint
21°C / 70°F
Humidity
74%
Altimeter
30.11" Hg
Pressure
1019.62 hPa
Previous

2 hours ago

KMCO 270053Z 12009KT 10SM CLR 27/20 A3009 RMK AO2 SLP188 T02720200
Observed
May-27 @ 00:53 UTC
Wind
  • 120° at 9 KTS
Visibility
10 SM
Flight Rules
VFR
Cloud Levels
  • Clear skies
Temperature
27°C / 81°F
Dewpoint
20°C / 68°F
Heat Index
29°C / 84°F
Humidity
66%
Altimeter
30.09" Hg
Pressure
1018.92 hPa